createdAt,value
2022-08-23T00:01:24.640Z,24.49
2022-08-23T00:03:27.527Z,24.53
2022-08-23T00:05:31.213Z,24.49
2022-08-23T00:07:38.057Z,24.47
2022-08-23T00:09:41.916Z,24.45
2022-08-23T00:11:47.630Z,24.37
2022-08-23T00:13:50.592Z,24.37
2022-08-23T00:15:53.414Z,24.31
2022-08-23T00:17:57.685Z,24.29
2022-08-23T00:20:00.387Z,24.09
2022-08-23T00:22:03.357Z,24.15
2022-08-23T00:24:08.225Z,24.18
2022-08-23T00:26:11.177Z,24.12
2022-08-23T00:28:14.853Z,24.14
2022-08-23T00:30:19.090Z,24.15
2022-08-23T00:32:26.112Z,24.11
2022-08-23T00:34:30.468Z,24.13
2022-08-23T00:36:33.117Z,23.84
2022-08-23T00:38:36.602Z,23.98
2022-08-23T00:40:39.582Z,24.00
2022-08-23T00:43:03.319Z,23.98
2022-08-23T00:45:28.737Z,24.04
2022-08-23T00:47:40.626Z,24.00
2022-08-23T00:49:49.468Z,24.01
2022-08-23T00:51:58.424Z,23.99
2022-08-23T00:54:02.423Z,23.92
2022-08-23T00:56:08.937Z,23.85
2022-08-23T00:58:13.698Z,23.86
2022-08-23T01:00:19.935Z,23.79
2022-08-23T01:02:23.000Z,23.72
2022-08-23T01:04:27.869Z,23.69
2022-08-23T01:06:38.132Z,23.60
2022-08-23T01:08:45.501Z,23.65
2022-08-23T01:10:58.011Z,23.65
2022-08-23T01:13:07.064Z,23.56
2022-08-23T01:15:15.484Z,23.64
2022-08-23T01:17:25.093Z,23.64
2022-08-23T01:19:31.854Z,23.65
2022-08-23T01:21:44.199Z,23.62
2022-08-23T01:23:51.951Z,23.60
2022-08-23T01:25:55.196Z,23.64
2022-08-23T01:27:59.394Z,23.60
2022-08-23T01:30:04.391Z,23.57
2022-08-23T01:32:08.397Z,23.57
2022-08-23T01:34:14.295Z,23.44
2022-08-23T01:36:18.511Z,23.37
2022-08-23T01:38:24.733Z,23.28
2022-08-23T01:40:30.008Z,23.21
2022-08-23T01:42:32.884Z,23.16
2022-08-23T01:44:36.230Z,23.07
2022-08-23T01:46:39.154Z,22.97
2022-08-23T01:48:42.265Z,23.01
2022-08-23T01:50:45.179Z,23.09
2022-08-23T01:52:48.746Z,23.00
2022-08-23T01:54:55.799Z,22.93
2022-08-23T01:57:00.123Z,22.90
2022-08-23T01:59:03.032Z,22.79
2022-08-23T02:01:10.809Z,22.88
2022-08-23T02:03:14.399Z,22.97
2022-08-23T02:05:19.075Z,22.98
2022-08-23T02:07:27.213Z,23.05
2022-08-23T02:09:29.587Z,23.01
2022-08-23T02:11:37.902Z,22.99
2022-08-23T02:13:42.357Z,23.05
2022-08-23T02:15:51.155Z,23.05
2022-08-23T02:17:54.736Z,23.00
2022-08-23T02:19:57.704Z,22.95
2022-08-23T02:22:00.613Z,22.91
2022-08-23T02:24:06.774Z,22.91
2022-08-23T02:26:10.536Z,22.84
2022-08-23T02:28:13.631Z,22.84
2022-08-23T02:30:17.895Z,22.82
2022-08-23T02:32:20.681Z,22.66
2022-08-23T02:34:24.759Z,22.61
2022-08-23T02:36:33.253Z,22.64
2022-08-23T02:38:36.153Z,22.71
2022-08-23T02:40:40.298Z,22.71
2022-08-23T02:42:43.274Z,22.67
2022-08-23T02:44:47.252Z,22.68
2022-08-23T02:46:51.624Z,22.59
2022-08-23T02:48:55.185Z,22.59
2022-08-23T02:51:00.751Z,22.60
2022-08-23T02:53:04.237Z,22.59
2022-08-23T02:55:10.060Z,22.57
2022-08-23T02:57:13.091Z,22.56
2022-08-23T02:59:15.988Z,22.49
2022-08-23T03:01:20.292Z,22.48
2022-08-23T03:03:25.745Z,22.46
2022-08-23T03:05:29.891Z,22.49
2022-08-23T03:07:32.890Z,22.41
2022-08-23T03:09:37.865Z,22.40
2022-08-23T03:11:45.882Z,22.41
2022-08-23T03:13:49.823Z,22.32
2022-08-23T03:15:53.196Z,22.29
2022-08-23T03:17:56.185Z,22.32
2022-08-23T03:20:01.602Z,22.34
2022-08-23T03:22:04.541Z,22.29
2022-08-23T03:24:10.321Z,22.31
2022-08-23T03:26:18.192Z,22.31
2022-08-23T03:28:21.152Z,22.17
2022-08-23T03:30:25.189Z,22.21
2022-08-23T03:32:33.492Z,22.20
2022-08-23T03:34:37.027Z,22.17
2022-08-23T03:36:43.538Z,22.19
2022-08-23T03:38:46.607Z,22.16
2022-08-23T03:40:52.288Z,22.10
2022-08-23T03:42:55.194Z,22.26
2022-08-23T03:45:02.439Z,22.48
2022-08-23T03:47:06.931Z,22.60
2022-08-23T03:49:10.585Z,22.59
2022-08-23T03:51:25.397Z,22.58
2022-08-23T03:53:29.787Z,22.67
2022-08-23T03:55:33.018Z,22.60
2022-08-23T03:57:38.122Z,22.64
2022-08-23T03:59:42.939Z,22.66
2022-08-23T04:01:47.546Z,22.64
2022-08-23T04:03:50.528Z,22.62
2022-08-23T04:05:53.364Z,22.60
2022-08-23T04:07:56.616Z,22.63
2022-08-23T04:10:02.154Z,22.66
2022-08-23T04:12:12.110Z,22.64
2022-08-23T04:14:21.090Z,22.62
2022-08-23T04:16:24.006Z,22.61
2022-08-23T04:18:26.935Z,22.57
2022-08-23T04:20:30.003Z,22.33
2022-08-23T04:22:35.958Z,22.01
2022-08-23T04:24:39.956Z,21.76
2022-08-23T04:26:44.605Z,21.57
2022-08-23T04:28:50.654Z,21.40
2022-08-23T04:30:53.593Z,21.32
2022-08-23T04:32:58.313Z,21.25
2022-08-23T04:35:01.694Z,21.21
2022-08-23T04:37:07.407Z,21.17
2022-08-23T04:39:12.684Z,21.17
2022-08-23T04:41:34.673Z,21.14
2022-08-23T04:43:39.157Z,21.12
2022-08-23T04:45:41.945Z,20.90
2022-08-23T04:47:52.107Z,20.93
2022-08-23T04:49:55.052Z,20.97
2022-08-23T04:51:58.161Z,20.98
2022-08-23T04:54:01.058Z,20.98
2022-08-23T04:56:32.401Z,20.93
2022-08-23T04:58:36.050Z,20.94
2022-08-23T05:00:40.521Z,20.90
2022-08-23T05:02:46.623Z,20.84
2022-08-23T05:04:49.505Z,20.85
2022-08-23T05:06:53.132Z,20.78
2022-08-23T05:08:57.430Z,20.81
2022-08-23T05:11:02.281Z,20.87
2022-08-23T05:13:05.952Z,20.88
2022-08-23T05:15:10.088Z,20.85
2022-08-23T05:17:17.351Z,20.83
2022-08-23T05:19:20.441Z,20.83
2022-08-23T05:21:25.384Z,20.85
2022-08-23T05:23:31.988Z,20.84
2022-08-23T05:25:52.425Z,20.82
2022-08-23T05:28:06.160Z,20.84
2022-08-23T05:30:15.470Z,20.90
2022-08-23T05:32:20.743Z,20.94
2022-08-23T05:34:23.795Z,20.80
2022-08-23T05:36:29.571Z,20.85
2022-08-23T05:38:34.131Z,20.84
2022-08-23T05:40:36.952Z,20.70
2022-08-23T05:42:45.834Z,20.83
2022-08-23T05:44:49.068Z,20.91
2022-08-23T05:46:53.987Z,20.95
2022-08-23T05:49:12.530Z,21.00
2022-08-23T05:51:22.477Z,21.03
2022-08-23T05:53:25.436Z,21.01
2022-08-23T05:55:28.520Z,20.97
2022-08-23T05:57:55.290Z,20.97
2022-08-23T05:59:58.573Z,20.98
2022-08-23T06:02:01.929Z,21.02
2022-08-23T06:04:07.447Z,21.04
2022-08-23T06:06:13.463Z,21.08
2022-08-23T06:08:19.011Z,21.11
2022-08-23T06:10:22.427Z,21.19
2022-08-23T06:12:36.829Z,21.26
2022-08-23T06:14:39.985Z,21.34
2022-08-23T06:16:45.019Z,21.41
2022-08-23T06:18:49.580Z,21.43
2022-08-23T06:23:24.915Z,21.48
2022-08-23T06:25:28.693Z,21.51
2022-08-23T06:27:42.305Z,21.54
2022-08-23T06:29:45.984Z,21.57
2022-08-23T06:32:10.213Z,21.65
2022-08-23T06:34:22.918Z,21.65
2022-08-23T06:36:49.381Z,21.70
2022-08-23T06:39:15.828Z,21.76
2022-08-23T06:41:41.472Z,21.81
2022-08-23T06:44:04.411Z,21.90
2022-08-23T06:46:29.531Z,21.97
2022-08-23T06:48:33.055Z,22.06
2022-08-23T06:50:36.220Z,22.12
2022-08-23T06:53:09.964Z,22.17
2022-08-23T06:55:22.578Z,22.20
2022-08-23T06:57:50.903Z,22.36
2022-08-23T07:00:13.657Z,22.43
2022-08-23T07:02:37.532Z,22.34
2022-08-23T07:04:59.706Z,22.46
2022-08-23T07:07:13.681Z,22.53
2022-08-23T07:09:19.598Z,22.63
2022-08-23T07:11:23.268Z,22.83
2022-08-23T07:13:26.485Z,22.81
2022-08-23T07:15:30.623Z,22.73
2022-08-23T07:17:34.585Z,22.76
2022-08-23T07:19:38.015Z,22.76
2022-08-23T07:21:42.212Z,22.82
2022-08-23T07:23:46.658Z,22.84
2022-08-23T07:25:52.003Z,22.92
2022-08-23T07:27:57.440Z,23.10
2022-08-23T07:30:00.466Z,23.14
2022-08-23T07:32:04.031Z,23.19
2022-08-23T07:34:08.771Z,23.26
2022-08-23T07:36:16.405Z,23.28
2022-08-23T07:38:19.611Z,23.31
2022-08-23T07:40:22.648Z,23.40
2022-08-23T07:42:34.216Z,23.44
2022-08-23T07:44:37.224Z,23.51
2022-08-23T07:46:43.156Z,23.51
2022-08-23T07:48:54.641Z,23.49
2022-08-23T07:51:03.581Z,23.43
2022-08-23T07:53:06.530Z,23.48
2022-08-23T07:55:10.658Z,23.54
2022-08-23T07:57:35.279Z,23.55
2022-08-23T07:59:58.588Z,23.55
2022-08-23T08:02:24.111Z,23.64
2022-08-23T08:04:27.138Z,23.78
2022-08-23T08:06:33.924Z,23.82
2022-08-23T08:08:36.888Z,23.85
2022-08-23T08:10:41.900Z,23.85
2022-08-23T08:12:46.310Z,23.81
2022-08-23T08:14:55.108Z,23.85
2022-08-23T08:17:03.583Z,23.92
2022-08-23T08:19:45.304Z,24.18
2022-08-23T08:22:16.694Z,24.28
2022-08-23T08:24:43.615Z,24.45
2022-08-23T08:26:48.816Z,24.51
2022-08-23T08:28:56.063Z,24.67
2022-08-23T08:30:59.940Z,24.63
2022-08-23T08:33:03.100Z,24.56
2022-08-23T08:35:08.662Z,24.64
2022-08-23T08:37:12.215Z,24.61
2022-08-23T08:39:18.783Z,24.60
2022-08-23T08:41:34.851Z,24.76
2022-08-23T08:43:52.239Z,24.81
2022-08-23T08:46:06.202Z,24.92
2022-08-23T08:48:13.805Z,25.00
2022-08-23T08:50:27.863Z,25.00
2022-08-23T08:52:39.879Z,24.95
2022-08-23T08:54:53.266Z,25.05
2022-08-23T08:57:01.540Z,25.30
2022-08-23T08:59:08.559Z,25.30
2022-08-23T09:01:13.545Z,25.49
2022-08-23T09:03:21.186Z,25.54
2022-08-23T09:05:27.714Z,25.66
2022-08-23T09:07:44.216Z,25.68
2022-08-23T09:10:06.388Z,25.66
2022-08-23T09:12:17.963Z,25.61
2022-08-23T09:14:44.184Z,25.73
2022-08-23T09:16:52.985Z,25.84
2022-08-23T09:18:56.013Z,25.95
2022-08-23T09:21:01.810Z,26.08
2022-08-23T09:23:09.977Z,26.09
2022-08-23T09:25:17.044Z,26.14
2022-08-23T09:27:32.885Z,26.27
2022-08-23T09:29:40.183Z,26.38
2022-08-23T09:31:47.307Z,26.51
2022-08-23T09:33:51.779Z,26.44
2022-08-23T09:36:20.238Z,26.63
2022-08-23T09:38:26.905Z,26.61
2022-08-23T09:40:38.915Z,26.74
2022-08-23T09:42:47.379Z,26.85
2022-08-23T09:44:52.052Z,26.71
2022-08-23T09:47:05.529Z,26.80
2022-08-23T09:49:26.401Z,26.83
2022-08-23T09:51:35.918Z,26.91
2022-08-23T09:53:45.611Z,27.02
2022-08-23T09:55:52.145Z,27.04
2022-08-23T09:57:55.534Z,27.09
2022-08-23T10:00:18.507Z,27.25
2022-08-23T10:02:29.631Z,27.22
2022-08-23T10:04:45.933Z,27.39
2022-08-23T10:06:49.659Z,27.41
2022-08-23T10:08:56.138Z,27.45
2022-08-23T10:11:17.797Z,27.64
2022-08-23T10:13:21.818Z,27.87
2022-08-23T10:15:51.985Z,27.72
2022-08-23T10:18:03.113Z,27.71
2022-08-23T10:20:22.056Z,27.78
2022-08-23T10:22:27.792Z,27.85
2022-08-23T10:24:58.579Z,27.97
2022-08-23T10:27:33.205Z,28.09
2022-08-23T10:29:41.422Z,28.20
2022-08-23T10:31:59.174Z,28.09
2022-08-23T10:34:20.349Z,28.19
2022-08-23T10:36:29.874Z,28.25
2022-08-23T10:38:41.656Z,28.20
2022-08-23T10:40:54.708Z,28.30
2022-08-23T10:43:15.406Z,28.39
2022-08-23T10:45:27.092Z,28.54
2022-08-23T10:47:37.308Z,28.66
2022-08-23T10:49:45.003Z,28.64
2022-08-23T10:51:53.075Z,28.66
2022-08-23T10:54:00.736Z,28.81
2022-08-23T10:56:04.985Z,28.84
2022-08-23T10:58:29.260Z,28.81
2022-08-23T11:00:36.146Z,28.81
2022-08-23T11:02:48.751Z,28.97
2022-08-23T11:05:07.625Z,28.99
2022-08-23T11:07:19.845Z,29.13
2022-08-23T11:09:58.175Z,29.21
2022-08-23T11:12:16.549Z,29.24
2022-08-23T11:14:34.385Z,29.60
2022-08-23T11:16:41.130Z,29.46
2022-08-23T11:18:46.696Z,29.36
2022-08-23T11:21:33.620Z,29.35
2022-08-23T11:23:47.000Z,29.56
2022-08-23T11:25:50.439Z,29.59
2022-08-23T11:28:38.699Z,29.76
2022-08-23T11:30:47.409Z,29.77
2022-08-23T11:32:52.229Z,29.60
2022-08-23T11:35:04.043Z,29.49
2022-08-23T11:37:28.528Z,29.54
2022-08-23T11:40:04.237Z,29.68
2022-08-23T11:42:10.389Z,29.86
2022-08-23T11:44:26.187Z,29.86
2022-08-23T11:46:36.539Z,29.91
2022-08-23T11:49:02.244Z,30.05
2022-08-23T11:51:19.793Z,30.00
2022-08-23T11:53:36.055Z,30.13
2022-08-23T11:56:01.013Z,30.27
2022-08-23T11:58:13.828Z,30.22
2022-08-23T12:00:22.763Z,30.50
2022-08-23T12:02:55.188Z,30.38
2022-08-23T12:05:00.893Z,30.41
2022-08-23T12:07:12.047Z,30.39
2022-08-23T12:09:55.813Z,30.53
2022-08-23T12:12:24.427Z,30.63
2022-08-23T12:14:36.600Z,30.51
2022-08-23T12:16:44.264Z,30.60
2022-08-23T12:18:57.197Z,30.63
2022-08-23T12:21:03.201Z,30.58
2022-08-23T12:23:14.980Z,30.75
2022-08-23T12:25:20.537Z,30.68
2022-08-23T12:27:31.645Z,30.70
2022-08-23T12:29:53.461Z,30.60
2022-08-23T12:32:02.383Z,30.67
2022-08-23T12:34:20.850Z,30.85
2022-08-23T12:36:32.918Z,30.84
2022-08-23T12:38:44.252Z,30.86
2022-08-23T12:40:50.946Z,30.88
2022-08-23T12:43:06.946Z,30.89
2022-08-23T12:45:20.011Z,30.97
2022-08-23T12:47:24.193Z,31.03
2022-08-23T12:49:33.372Z,31.05
2022-08-23T12:51:41.962Z,31.07
2022-08-23T12:53:46.418Z,31.11
2022-08-23T12:55:52.130Z,31.13
2022-08-23T12:57:58.253Z,31.09
2022-08-23T13:00:16.983Z,31.24
2022-08-23T13:02:25.772Z,31.10
2022-08-23T13:04:29.197Z,31.04
2022-08-23T13:06:35.700Z,31.08
2022-08-23T13:08:43.514Z,31.15
2022-08-23T13:10:47.598Z,31.35
2022-08-23T13:12:50.670Z,31.41
2022-08-23T13:15:01.306Z,31.42
2022-08-23T13:17:20.637Z,31.40
2022-08-23T13:19:27.168Z,31.47
2022-08-23T13:21:37.006Z,31.56
2022-08-23T13:23:42.706Z,31.50
2022-08-23T13:25:45.580Z,31.42
2022-08-23T13:27:53.869Z,31.44
2022-08-23T13:29:59.247Z,31.27
2022-08-23T13:32:05.879Z,31.20
2022-08-23T13:34:11.242Z,31.36
2022-08-23T13:36:17.450Z,31.48
2022-08-23T13:38:24.591Z,31.68
2022-08-23T13:40:30.100Z,31.57
2022-08-23T13:42:36.763Z,31.48
2022-08-23T13:44:40.536Z,31.49
2022-08-23T13:46:46.121Z,31.43
2022-08-23T13:48:55.329Z,31.65
2022-08-23T13:51:28.445Z,31.62
2022-08-23T13:53:31.307Z,31.50
2022-08-23T13:55:43.389Z,31.47
2022-08-23T13:57:46.274Z,31.33
2022-08-23T13:59:52.327Z,31.33
2022-08-23T14:01:56.264Z,31.48
2022-08-23T14:03:59.077Z,31.47
2022-08-23T14:06:01.935Z,31.57
2022-08-23T14:08:06.350Z,31.77
2022-08-23T14:10:09.868Z,31.81
2022-08-23T14:12:16.116Z,31.77
2022-08-23T14:14:19.170Z,31.66
2022-08-23T14:16:34.939Z,31.96
2022-08-23T14:19:15.141Z,31.82
2022-08-23T14:21:02.293Z,31.78
2022-08-23T14:23:12.194Z,31.80
2022-08-23T14:25:16.231Z,31.75
2022-08-23T14:27:19.148Z,31.79
2022-08-23T14:29:23.463Z,31.76
2022-08-23T14:31:26.762Z,31.82
2022-08-23T14:33:29.619Z,31.95
2022-08-23T14:35:32.701Z,32.01
2022-08-23T14:40:00.023Z,32.16
2022-08-23T14:42:03.406Z,32.31
2022-08-23T14:44:09.505Z,32.18
2022-08-23T14:46:12.476Z,32.10
2022-08-23T14:48:15.517Z,32.07
2022-08-23T14:50:18.643Z,31.99
2022-08-23T14:52:21.834Z,31.81
2022-08-23T14:54:26.857Z,31.86
2022-08-23T14:56:31.263Z,31.90
2022-08-23T14:58:35.321Z,31.92
2022-08-23T15:00:38.862Z,31.92
2022-08-23T15:02:44.657Z,31.83
2022-08-23T15:04:47.550Z,31.87
2022-08-23T15:07:16.098Z,31.79
2022-08-23T15:09:14.257Z,31.70
2022-08-23T15:13:55.485Z,31.91
2022-08-23T15:15:59.461Z,31.84
2022-08-23T15:18:04.770Z,31.76
2022-08-23T15:20:08.384Z,31.71
2022-08-23T15:22:21.624Z,31.59
2022-08-23T15:24:25.299Z,31.49
2022-08-23T15:26:31.158Z,31.56
2022-08-23T15:28:34.019Z,31.56
2022-08-23T15:30:38.568Z,31.65
2022-08-23T15:32:52.340Z,31.66
2022-08-23T15:35:06.058Z,31.66
2022-08-23T15:37:08.725Z,31.59
2022-08-23T15:39:11.684Z,31.60
2022-08-23T15:41:15.042Z,31.76
2022-08-23T15:43:18.066Z,31.73
2022-08-23T15:45:21.085Z,31.74
2022-08-23T15:47:28.689Z,31.75
2022-08-23T15:49:36.468Z,31.76
2022-08-23T15:51:39.857Z,31.81
2022-08-23T15:53:42.749Z,31.72
2022-08-23T15:55:46.529Z,31.73
2022-08-23T15:57:52.712Z,31.72
2022-08-23T15:59:56.330Z,31.71
2022-08-23T16:01:59.377Z,31.79
2022-08-23T16:04:04.382Z,31.78
2022-08-23T16:06:07.790Z,31.68
2022-08-23T16:08:14.313Z,31.60
2022-08-23T16:10:17.211Z,31.70
2022-08-23T16:12:20.047Z,31.77
2022-08-23T16:14:22.899Z,31.76
2022-08-23T16:16:28.558Z,31.78
2022-08-23T16:18:31.474Z,31.83
2022-08-23T16:20:38.835Z,31.87
2022-08-23T16:22:41.732Z,31.97
2022-08-23T16:24:44.649Z,32.11
2022-08-23T16:26:49.376Z,32.22
2022-08-23T16:28:55.765Z,32.32
2022-08-23T16:31:01.783Z,32.36
2022-08-23T16:33:05.078Z,32.27
2022-08-23T16:35:09.427Z,32.19
2022-08-23T16:37:13.612Z,31.96
2022-08-23T16:39:17.364Z,31.73
2022-08-23T16:41:20.398Z,31.51
2022-08-23T16:43:23.242Z,31.37
2022-08-23T16:45:26.589Z,31.26
2022-08-23T16:47:34.694Z,31.20
2022-08-23T16:49:37.570Z,31.15
2022-08-23T16:51:40.689Z,31.08
2022-08-23T16:54:01.589Z,31.00
2022-08-23T16:56:07.053Z,30.94
2022-08-23T16:58:09.959Z,30.87
2022-08-23T17:00:14.262Z,30.80
2022-08-23T17:02:28.412Z,30.75
2022-08-23T17:04:32.347Z,30.71
2022-08-23T17:06:35.375Z,30.63
2022-08-23T17:08:38.763Z,30.57
2022-08-23T17:10:43.505Z,30.56
2022-08-23T17:12:49.534Z,30.52
2022-08-23T17:14:54.782Z,30.44
2022-08-23T17:16:57.860Z,30.40
2022-08-23T17:19:00.879Z,30.37
2022-08-23T17:21:04.444Z,30.33
2022-08-23T17:23:07.789Z,30.29
2022-08-23T17:25:12.236Z,30.25
2022-08-23T17:27:19.338Z,30.22
2022-08-23T17:29:22.538Z,30.17
2022-08-23T17:31:27.034Z,30.11
2022-08-23T17:33:30.047Z,30.08
2022-08-23T17:35:34.220Z,30.05
2022-08-23T17:37:38.185Z,30.01
2022-08-23T17:39:41.249Z,29.93
2022-08-23T17:41:46.027Z,29.87
2022-08-23T17:43:51.108Z,29.82
2022-08-23T17:45:54.117Z,29.77
2022-08-23T17:47:57.812Z,29.72
2022-08-23T17:50:03.109Z,29.68
2022-08-23T17:52:06.303Z,29.63
2022-08-23T17:54:11.776Z,29.57
2022-08-23T17:56:18.792Z,29.49
2022-08-23T17:58:22.225Z,29.42
2022-08-23T18:00:29.022Z,29.33
2022-08-23T18:02:31.876Z,29.24
2022-08-23T18:04:34.996Z,29.17
2022-08-23T18:06:38.017Z,29.10
2022-08-23T18:08:40.884Z,29.04
2022-08-23T18:10:43.889Z,28.99
2022-08-23T18:12:46.888Z,28.97
2022-08-23T18:14:49.912Z,28.93
2022-08-23T18:16:54.643Z,28.91
2022-08-23T18:18:58.128Z,28.86
2022-08-23T18:21:05.498Z,28.80
2022-08-23T18:23:08.576Z,28.72
2022-08-23T18:25:14.112Z,28.64
2022-08-23T18:27:34.612Z,28.60
2022-08-23T18:29:39.099Z,28.53
2022-08-23T18:31:43.610Z,28.47
2022-08-23T18:33:47.978Z,28.43
2022-08-23T18:35:51.746Z,28.35
2022-08-23T18:37:54.715Z,28.31
2022-08-23T18:39:57.808Z,28.25
2022-08-23T18:42:01.941Z,28.18
2022-08-23T18:44:05.896Z,27.96
2022-08-23T18:46:09.944Z,27.95
2022-08-23T18:48:13.165Z,27.91
2022-08-23T18:50:18.466Z,27.84
2022-08-23T18:52:29.241Z,27.79
2022-08-23T18:54:34.739Z,27.74
2022-08-23T18:56:38.055Z,27.68
2022-08-23T18:58:41.057Z,27.65
2022-08-23T19:00:44.748Z,27.61
2022-08-23T19:02:48.103Z,27.56
2022-08-23T19:04:53.005Z,27.52
2022-08-23T19:06:57.812Z,27.48
2022-08-23T19:09:01.844Z,27.44
2022-08-23T19:11:05.657Z,27.37
2022-08-23T19:13:09.805Z,27.34
2022-08-23T19:15:13.889Z,27.33
2022-08-23T19:17:16.838Z,27.26
2022-08-23T19:19:19.876Z,27.25
2022-08-23T19:21:25.459Z,27.23
2022-08-23T19:23:29.737Z,27.17
2022-08-23T19:25:33.875Z,26.99
2022-08-23T19:27:36.781Z,26.99
2022-08-23T19:29:39.713Z,27.00
2022-08-23T19:31:46.639Z,26.98
2022-08-23T19:33:50.889Z,26.91
2022-08-23T19:35:54.010Z,26.69
2022-08-23T19:38:00.831Z,26.70
2022-08-23T19:40:06.795Z,26.72
2022-08-23T19:42:11.803Z,26.71
2022-08-23T19:44:17.667Z,26.67
2022-08-23T19:46:20.811Z,26.59
2022-08-23T19:48:23.981Z,26.54
2022-08-23T19:50:27.457Z,26.48
2022-08-23T19:52:30.305Z,26.43
2022-08-23T19:54:33.275Z,26.41
2022-08-23T19:56:41.138Z,26.37
2022-08-23T19:58:44.018Z,26.33
2022-08-23T20:00:46.903Z,26.34
2022-08-23T20:02:50.004Z,26.32
2022-08-23T20:04:53.597Z,26.30
2022-08-23T20:06:57.499Z,26.27
2022-08-23T20:09:01.261Z,26.23
2022-08-23T20:11:04.148Z,26.21
2022-08-23T20:13:08.374Z,26.19
2022-08-23T20:15:12.730Z,26.16
2022-08-23T20:17:15.545Z,26.12
2022-08-23T20:19:18.519Z,26.10
2022-08-23T20:21:23.502Z,26.06
2022-08-23T20:23:44.228Z,26.02
2022-08-23T20:25:47.075Z,25.98
2022-08-23T20:27:50.085Z,25.95
2022-08-23T20:29:54.714Z,25.93
2022-08-23T20:32:00.200Z,25.90
2022-08-23T20:34:04.495Z,25.75
2022-08-23T20:36:07.273Z,25.51
2022-08-23T20:38:10.204Z,25.58
2022-08-23T20:40:33.151Z,25.58
2022-08-23T20:42:36.054Z,25.63
2022-08-23T20:44:38.891Z,25.58
2022-08-23T20:46:44.066Z,25.57
2022-08-23T20:48:47.050Z,25.50
2022-08-23T20:50:49.977Z,25.44
2022-08-23T20:52:53.158Z,25.44
2022-08-23T20:54:56.108Z,25.41
2022-08-23T20:56:59.104Z,25.39
2022-08-23T20:59:02.076Z,25.41
2022-08-23T21:01:09.316Z,25.41
2022-08-23T21:03:15.451Z,25.38
2022-08-23T21:05:18.237Z,25.21
2022-08-23T21:07:21.278Z,25.18
2022-08-23T21:09:28.924Z,25.21
2022-08-23T21:11:32.557Z,25.17
2022-08-23T21:13:35.932Z,25.16
2022-08-23T21:15:38.960Z,25.13
2022-08-23T21:17:42.026Z,25.14
2022-08-23T21:19:46.363Z,25.14
2022-08-23T21:21:50.357Z,25.12
2022-08-23T21:23:54.774Z,25.09
2022-08-23T21:25:59.830Z,25.05
2022-08-23T21:28:04.360Z,25.01
2022-08-23T21:30:09.647Z,25.01
2022-08-23T21:32:13.954Z,25.00
2022-08-23T21:34:17.504Z,24.80
2022-08-23T21:36:23.639Z,24.84
2022-08-23T21:38:26.552Z,24.88
2022-08-23T21:40:29.682Z,24.89
2022-08-23T21:42:32.618Z,24.86
2022-08-23T21:44:35.777Z,24.82
2022-08-23T21:46:39.030Z,24.74
2022-08-23T21:48:41.892Z,24.77
2022-08-23T21:50:45.209Z,24.74
2022-08-23T21:52:54.642Z,24.70
2022-08-23T21:54:59.867Z,24.65
2022-08-23T21:57:02.830Z,24.60
2022-08-23T21:59:09.196Z,24.65
2022-08-23T22:01:12.292Z,24.61
2022-08-23T22:03:15.347Z,24.62
2022-08-23T22:05:18.398Z,24.63
2022-08-23T22:07:22.543Z,24.58
2022-08-23T22:09:31.170Z,24.55
2022-08-23T22:11:37.515Z,24.55
2022-08-23T22:13:41.450Z,24.56
2022-08-23T22:15:44.364Z,24.56
2022-08-23T22:17:47.327Z,24.56
2022-08-23T22:19:51.553Z,24.60
2022-08-23T22:21:54.664Z,24.59
2022-08-23T22:23:57.572Z,24.53
2022-08-23T22:26:06.084Z,24.51
2022-08-23T22:28:09.213Z,24.48
2022-08-23T22:30:13.210Z,24.46
2022-08-23T22:32:16.149Z,24.46
2022-08-23T22:34:19.020Z,24.52
2022-08-23T22:36:24.516Z,24.54
2022-08-23T22:38:27.470Z,24.52
2022-08-23T22:40:30.326Z,24.49
2022-08-23T22:42:34.521Z,24.51
2022-08-23T22:44:38.886Z,24.41
2022-08-23T22:46:41.950Z,24.44
2022-08-23T22:48:44.775Z,24.41
2022-08-23T22:50:48.116Z,24.38
2022-08-23T22:52:51.641Z,24.35
2022-08-23T22:54:54.461Z,24.34
2022-08-23T22:56:57.842Z,24.32
2022-08-23T22:59:01.987Z,24.33
2022-08-23T23:01:12.881Z,24.28
2022-08-23T23:03:16.385Z,24.29
2022-08-23T23:05:19.471Z,24.30
2022-08-23T23:07:36.233Z,24.24
2022-08-23T23:09:39.114Z,24.24
2022-08-23T23:11:45.449Z,24.23
2022-08-23T23:13:48.489Z,24.23
2022-08-23T23:15:52.731Z,24.26
2022-08-23T23:17:55.510Z,24.23
2022-08-23T23:20:15.835Z,24.22
2022-08-23T23:22:18.645Z,24.22
2022-08-23T23:24:24.933Z,24.21
2022-08-23T23:26:27.817Z,24.17
2022-08-23T23:28:31.314Z,24.20
2022-08-23T23:30:34.358Z,24.17
2022-08-23T23:32:38.574Z,24.21
2022-08-23T23:34:42.454Z,24.20
2022-08-23T23:36:45.376Z,24.22
2022-08-23T23:38:48.554Z,24.23
2022-08-23T23:40:51.937Z,24.21
2022-08-23T23:42:55.317Z,24.15
2022-08-23T23:44:58.330Z,24.14
2022-08-23T23:47:02.065Z,24.14
2022-08-23T23:49:06.363Z,24.12
2022-08-23T23:51:12.169Z,24.12
2022-08-23T23:53:15.530Z,24.14
2022-08-23T23:55:21.213Z,24.14
2022-08-23T23:57:24.352Z,24.07
2022-08-23T23:59:27.820Z,24.08
